Aérodrome :
LOGIN :

S'inscrire | Disclaimer

   EN    FR    IT 

 










Légende :    VFR   VFR Marginal   IFR   IFR Intensif   IFR Très Intensif
Visi : 
Plafond : 
>= 8 km
>= 3000ft
5 à 8 km
1000 à 3000 ft
1500m à 5 km
500 à 1000 ft
800 à 1500m
200 à 500 ft
< 800m
< 200 ft
Symboles :   Orages  Brouillard  Fortes neiges  Fortes précipitations  Vent > 20 kt
SIGMETs :   Divers  Orages  Givrage  Turbulence  Onde Orograph.  Cendres Volcan.






- Altitude de l'aérodrome : 34 ft
- Code IATA : BLK


EGNH - Blackpool

DERNIER METAR :
  • 030820Z 29012KT 9999 SCT014 BKN043 15/11 Q1018

METARs EXPIRÉS :
  • 030750Z 29013KT 9999 SCT012 BKN045 15/11 Q1018
  • 030720Z 29012KT 9999 SCT015 BKN042 15/11 Q1017
  • 030650Z 30013KT 9999 SCT014 BKN037 15/11 Q1017
  • 030620Z 30012KT 9999 FEW014 BKN033 15/12 Q1017
  • 030550Z 30012KT 9999 FEW016 15/11 Q1017

TAF TAF EGNH
Valide du 03 à 09h jusqu'au 03 à 18h UTC


030758Z 0309/0318 29012KT 9999 SCT020
TEMPO 0309/0313 BKN012
PROB30
TEMPO 0309/0316 7000 SHRA
ATIS : +44 1253 343 434 (x8315)



MET'MAP, la Météo Aéronautique d'un coup d'oeil ! - Copyright ORBIFLY Décembre 2007 - Disclaimer

ORBIFLY MET'MAP TEAM :

Programmation & Développement : Alexandra Zaïnal
Sur une idée originale de : Baudouin d'Aumeries
Soutien technique & logistique : Manuel Goepfert
Assistance : Marc-Olivier Méhu




SOURCES & CREDITS :

   NOAA